Time;durP1;ratioP1;P1;durP2;ratioP2;P2;SDS_P1;SDS_P2;PMS_P1;PMS_P2;Temp;Humidity;BMP_temperature;BMP_pressure;BME280_temperature;BME280_humidity;BME280_pressure;Samples;Min_cycle;Max_cycle;Signal;HPM_P1;HPM_P2
2023/12/05 00:00:18;;;;;;;12.27;9.77;;;;;;;;;;4970413;28;20222;-87
2023/12/05 00:02:44;;;;;;;11.50;10.07;;;;;;;;;;4957255;28;20246;-86
2023/12/05 00:05:12;;;;;;;10.10;9.10;;;;;;;;;;4960880;28;20273;-88
2023/12/05 00:07:38;;;;;;;10.53;9.47;;;;;;;;;;4978618;28;20218;-87
2023/12/05 00:10:07;;;;;;;11.50;10.30;;;;;;;;;;4970888;28;20257;-87
2023/12/05 00:12:32;;;;;;;10.97;9.87;;;;;;;;;;4959892;28;20225;-90
2023/12/05 00:15:00;;;;;;;11.80;10.70;;;;;;;;;;4971559;28;20314;-87
2023/12/05 00:17:28;;;;;;;11.43;10.30;;;;;;;;;;4941838;28;20222;-87
2023/12/05 00:19:53;;;;;;;11.83;10.67;;;;;;;;;;4942924;28;20252;-87
2023/12/05 00:22:25;;;;;;;11.20;10.10;;;;;;;;;;4974854;28;20629;-87
2023/12/05 00:24:50;;;;;;;11.27;10.10;;;;;;;;;;4945748;28;20234;-88
2023/12/05 00:27:18;;;;;;;11.40;10.17;;;;;;;;;;4959586;28;20225;-87
2023/12/05 00:29:44;;;;;;;12.80;11.00;;;;;;;;;;4954390;28;20219;-86
2023/12/05 00:32:10;;;;;;;10.93;9.83;;;;;;;;;;4933332;28;20715;-87
2023/12/05 00:34:38;;;;;;;10.43;9.50;;;;;;;;;;4956925;28;20227;-87
2023/12/05 00:37:03;;;;;;;12.20;11.00;;;;;;;;;;4968531;28;20759;-87
2023/12/05 00:39:29;;;;;;;13.20;11.13;;;;;;;;;;4962587;28;20226;-87
2023/12/05 00:41:54;;;;;;;12.63;10.77;;;;;;;;;;4947910;28;20222;-86
2023/12/05 00:44:20;;;;;;;12.20;11.00;;;;;;;;;;4945036;28;20214;-86
2023/12/05 00:46:46;;;;;;;14.37;11.43;;;;;;;;;;4944639;28;20234;-86
2023/12/05 00:49:14;;;;;;;11.37;10.37;;;;;;;;;;4975684;28;20222;-86
2023/12/05 00:51:39;;;;;;;11.40;10.40;;;;;;;;;;4941954;28;20233;-87
2023/12/05 00:54:05;;;;;;;11.30;10.20;;;;;;;;;;4958180;28;20226;-87
2023/12/05 00:56:31;;;;;;;18.87;11.70;;;;;;;;;;4963623;28;20230;-87
2023/12/05 00:58:58;;;;;;;13.53;12.23;;;;;;;;;;4944032;28;20218;-86
2023/12/05 01:01:27;;;;;;;12.50;10.97;;;;;;;;;;4973137;28;20226;-85
2023/12/05 01:03:54;;;;;;;12.27;11.07;;;;;;;;;;4939849;28;20582;-86
2023/12/05 01:06:20;;;;;;;12.50;11.30;;;;;;;;;;4943387;28;20230;-87
2023/12/05 01:08:45;;;;;;;13.47;12.00;;;;;;;;;;4963242;28;20231;-88
2023/12/05 01:11:11;;;;;;;11.63;10.53;;;;;;;;;;4950399;28;20215;-87
2023/12/05 01:13:36;;;;;;;12.83;11.47;;;;;;;;;;4935522;28;20675;-87
2023/12/05 01:16:03;;;;;;;14.87;12.17;;;;;;;;;;4958436;28;20223;-86
2023/12/05 01:18:29;;;;;;;12.63;11.33;;;;;;;;;;4929251;28;20226;-87
2023/12/05 01:20:54;;;;;;;12.20;11.00;;;;;;;;;;4938202;29;20219;-87
2023/12/05 01:23:20;;;;;;;12.77;11.47;;;;;;;;;;4923558;28;20229;-86
2023/12/05 01:25:46;;;;;;;12.90;11.63;;;;;;;;;;4937625;28;20214;-86
2023/12/05 01:28:12;;;;;;;12.40;11.30;;;;;;;;;;4977155;28;20226;-91
2023/12/05 01:30:37;;;;;;;12.70;11.50;;;;;;;;;;4952432;28;20218;-87
2023/12/05 01:33:03;;;;;;;12.33;11.13;;;;;;;;;;4949743;28;20540;-88
2023/12/05 01:35:29;;;;;;;13.13;11.73;;;;;;;;;;4974942;28;20227;-88
2023/12/05 01:37:55;;;;;;;13.13;11.73;;;;;;;;;;4960355;28;20222;-87
2023/12/05 01:40:23;;;;;;;13.00;11.70;;;;;;;;;;4975297;28;20222;-87
2023/12/05 01:42:49;;;;;;;13.57;12.17;;;;;;;;;;4961041;28;20230;-86
2023/12/05 01:45:14;;;;;;;13.40;12.10;;;;;;;;;;4974636;28;20210;-88
2023/12/05 01:47:40;;;;;;;12.20;10.57;;;;;;;;;;4980787;28;20221;-88
2023/12/05 01:50:13;;;;;;;12.77;11.53;;;;;;;;;;4940206;28;20231;-86
2023/12/05 01:52:39;;;;;;;13.00;11.70;;;;;;;;;;4959527;28;20242;-87
2023/12/05 01:55:06;;;;;;;14.27;12.70;;;;;;;;;;4954838;28;20278;-87
2023/12/05 01:57:32;;;;;;;13.10;11.80;;;;;;;;;;4946574;28;20218;-86
2023/12/05 01:59:58;;;;;;;14.97;13.40;;;;;;;;;;4943826;28;20218;-86
2023/12/05 02:02:24;;;;;;;14.63;12.57;;;;;;;;;;4927052;28;20222;-85
2023/12/05 02:04:49;;;;;;;13.97;12.57;;;;;;;;;;4940387;28;20601;-86
2023/12/05 02:07:15;;;;;;;15.63;13.23;;;;;;;;;;4940352;28;20219;-86
2023/12/05 02:09:40;;;;;;;13.43;12.23;;;;;;;;;;4971992;28;20223;-87
2023/12/05 02:12:06;;;;;;;13.47;12.17;;;;;;;;;;4936368;28;20214;-87
2023/12/05 02:14:32;;;;;;;13.40;12.07;;;;;;;;;;4942336;28;20233;-86
2023/12/05 02:17:03;;;;;;;14.27;12.90;;;;;;;;;;4924069;29;20600;-85
2023/12/05 02:19:58;;;;;;;14.10;12.70;;;;;;;;;;4959023;28;20230;-86
2023/12/05 02:22:36;;;;;;;13.83;12.53;;;;;;;;;;4924401;28;20696;-86
2023/12/05 02:25:10;;;;;;;13.67;12.23;;;;;;;;;;4955734;28;20227;-86
2023/12/05 02:27:39;;;;;;;14.17;12.67;;;;;;;;;;4934363;28;20236;-87
2023/12/05 02:30:09;;;;;;;13.47;12.17;;;;;;;;;;4955748;28;20785;-87
2023/12/05 02:32:35;;;;;;;14.43;13.13;;;;;;;;;;4963984;28;20657;-87
2023/12/05 02:35:05;;;;;;;14.93;12.73;;;;;;;;;;4942095;28;20227;-86
2023/12/05 02:37:38;;;;;;;15.00;13.53;;;;;;;;;;4928931;28;20286;-86
2023/12/05 02:40:46;;;;;;;15.17;12.90;;;;;;;;;;4939245;28;20723;-87
2023/12/05 02:43:12;;;;;;;14.37;12.97;;;;;;;;;;4899089;29;20220;-88
2023/12/05 02:45:38;;;;;;;13.90;12.67;;;;;;;;;;4912382;28;20262;-86
2023/12/05 02:48:04;;;;;;;14.30;12.80;;;;;;;;;;4913405;28;20219;-85
2023/12/05 02:50:29;;;;;;;14.27;12.97;;;;;;;;;;4982095;28;20774;-85
2023/12/05 02:52:59;;;;;;;14.73;13.27;;;;;;;;;;4969908;28;20235;-85
2023/12/05 02:55:25;;;;;;;14.33;12.93;;;;;;;;;;4955714;28;20305;-87
2023/12/05 02:57:53;;;;;;;16.13;13.80;;;;;;;;;;4942329;28;20202;-89
2023/12/05 03:00:19;;;;;;;15.60;14.10;;;;;;;;;;4951625;28;20310;-87
2023/12/05 03:02:45;;;;;;;14.67;13.27;;;;;;;;;;4948905;28;20637;-86
2023/12/05 03:05:13;;;;;;;16.10;14.33;;;;;;;;;;4933257;28;20219;-87
2023/12/05 03:07:39;;;;;;;15.23;13.80;;;;;;;;;;4959972;28;20277;-87
2023/12/05 03:10:04;;;;;;;15.43;13.90;;;;;;;;;;4986228;28;20880;-86
2023/12/05 03:12:33;;;;;;;15.13;13.70;;;;;;;;;;4940991;28;20226;-88
2023/12/05 03:15:01;;;;;;;16.83;14.17;;;;;;;;;;4950770;28;20276;-87
2023/12/05 03:17:29;;;;;;;15.00;13.60;;;;;;;;;;4945714;28;20631;-87
2023/12/05 03:19:55;;;;;;;16.13;14.17;;;;;;;;;;4955347;28;20218;-87
2023/12/05 03:22:22;;;;;;;15.07;13.70;;;;;;;;;;4939109;28;20225;-88
2023/12/05 03:24:50;;;;;;;15.77;14.17;;;;;;;;;;4963788;28;20297;-87
2023/12/05 03:27:16;;;;;;;15.90;14.20;;;;;;;;;;4938151;28;20214;-87
2023/12/05 03:29:41;;;;;;;16.00;14.50;;;;;;;;;;4958171;28;20218;-87
2023/12/05 03:32:07;;;;;;;16.00;14.50;;;;;;;;;;4956880;28;20224;-88
2023/12/05 03:34:35;;;;;;;16.90;15.30;;;;;;;;;;4980099;28;20218;-92
2023/12/05 03:37:00;;;;;;;15.33;13.93;;;;;;;;;;4978785;28;20238;-87
2023/12/05 03:39:26;;;;;;;16.30;14.60;;;;;;;;;;4964418;28;20218;-86
2023/12/05 03:41:51;;;;;;;17.17;15.47;;;;;;;;;;4939516;29;20218;-87
2023/12/05 03:44:20;;;;;;;17.07;15.37;;;;;;;;;;4945162;28;20230;-87
2023/12/05 03:46:45;;;;;;;15.60;14.10;;;;;;;;;;4963942;28;20226;-87
2023/12/05 03:49:11;;;;;;;18.43;16.33;;;;;;;;;;4984237;28;20226;-88
2023/12/05 03:51:36;;;;;;;16.73;15.17;;;;;;;;;;4987142;28;20234;-86
2023/12/05 03:54:02;;;;;;;16.33;14.87;;;;;;;;;;4980180;28;20230;-85
2023/12/05 03:56:28;;;;;;;17.50;15.80;;;;;;;;;;4952190;28;20227;-87
2023/12/05 04:02:42;;;;;;;16.20;14.60;;;;;;;;;;4988156;28;20610;-87
2023/12/05 04:05:08;;;;;;;21.27;17.13;;;;;;;;;;4956259;28;20214;-86
2023/12/05 04:07:37;;;;;;;20.27;15.83;;;;;;;;;;4987073;28;20228;-87
2023/12/05 04:10:06;;;;;;;18.00;16.13;;;;;;;;;;4958786;28;20301;-87
2023/12/05 04:12:32;;;;;;;18.60;16.80;;;;;;;;;;4949893;28;20223;-90
2023/12/05 04:15:00;;;;;;;17.77;16.07;;;;;;;;;;4944098;28;20775;-87
2023/12/05 04:17:27;;;;;;;16.93;15.33;;;;;;;;;;4973328;28;20318;-87
2023/12/05 04:20:04;;;;;;;17.47;15.87;;;;;;;;;;4928811;28;20221;-89
2023/12/05 04:22:30;;;;;;;17.80;16.03;;;;;;;;;;4932317;28;20231;-88
2023/12/05 04:24:55;;;;;;;18.90;16.97;;;;;;;;;;4962977;28;20222;-87
2023/12/05 04:27:21;;;;;;;18.33;16.43;;;;;;;;;;4973012;28;20223;-88
2023/12/05 04:29:49;;;;;;;17.20;15.60;;;;;;;;;;4959016;28;20202;-87
2023/12/05 04:32:17;;;;;;;18.17;16.33;;;;;;;;;;4962325;28;20229;-87
2023/12/05 04:34:44;;;;;;;19.33;17.53;;;;;;;;;;4943100;28;20292;-86
2023/12/05 04:37:11;;;;;;;24.47;21.67;;;;;;;;;;4967915;28;20222;-86
2023/12/05 04:39:39;;;;;;;19.37;17.50;;;;;;;;;;4973449;28;20253;-86
2023/12/05 04:42:06;;;;;;;18.63;16.70;;;;;;;;;;4959628;28;20215;-88
2023/12/05 04:44:31;;;;;;;25.40;22.77;;;;;;;;;;4954694;28;20719;-86
2023/12/05 04:46:57;;;;;;;19.43;17.53;;;;;;;;;;4971665;28;20333;-87
2023/12/05 04:49:28;;;;;;;23.83;20.47;;;;;;;;;;4941698;28;20247;-87
2023/12/05 04:51:53;;;;;;;22.07;19.33;;;;;;;;;;4932697;28;20747;-89
2023/12/05 04:54:19;;;;;;;20.47;18.30;;;;;;;;;;4926744;28;20234;-88
2023/12/05 04:56:47;;;;;;;20.70;17.63;;;;;;;;;;4926726;28;20222;-87
2023/12/05 04:59:12;;;;;;;19.30;17.40;;;;;;;;;;4935371;28;20245;-88
2023/12/05 05:01:40;;;;;;;19.20;17.20;;;;;;;;;;4936509;28;20222;-87
2023/12/05 05:04:10;;;;;;;19.43;16.90;;;;;;;;;;4954077;28;20217;-87
2023/12/05 05:06:35;;;;;;;20.40;18.20;;;;;;;;;;4943565;28;20277;-88
2023/12/05 05:09:01;;;;;;;18.80;17.00;;;;;;;;;;4956371;28;20227;-86
2023/12/05 05:11:28;;;;;;;19.83;17.83;;;;;;;;;;4943229;28;20218;-88
2023/12/05 05:13:54;;;;;;;20.00;18.00;;;;;;;;;;4952545;28;20296;-79
2023/12/05 05:16:19;;;;;;;19.40;17.67;;;;;;;;;;4967091;28;20233;-80
2023/12/05 05:18:47;;;;;;;19.40;17.40;;;;;;;;;;4947853;28;20330;-80
2023/12/05 05:21:13;;;;;;;19.33;17.40;;;;;;;;;;4963412;28;20215;-79
2023/12/05 05:23:39;;;;;;;20.27;18.20;;;;;;;;;;4956957;28;20233;-78
2023/12/05 05:26:04;;;;;;;20.83;18.73;;;;;;;;;;4940786;28;20238;-79
2023/12/05 05:28:30;;;;;;;19.73;17.83;;;;;;;;;;4978579;28;20258;-80
2023/12/05 05:30:55;;;;;;;19.10;17.30;;;;;;;;;;4967453;28;20225;-80
2023/12/05 05:33:21;;;;;;;21.47;19.17;;;;;;;;;;4939848;28;20234;-79
2023/12/05 05:35:47;;;;;;;18.97;17.13;;;;;;;;;;4951240;28;20585;-78
2023/12/05 05:38:13;;;;;;;19.63;17.73;;;;;;;;;;4967270;28;20218;-78
2023/12/05 05:40:41;;;;;;;19.50;17.67;;;;;;;;;;4963446;28;20225;-79
2023/12/05 05:43:07;;;;;;;19.03;17.20;;;;;;;;;;4931876;28;20245;-79
2023/12/05 05:45:33;;;;;;;20.77;18.53;;;;;;;;;;4949293;28;20858;-79
2023/12/05 05:47:58;;;;;;;19.53;17.57;;;;;;;;;;4933878;28;20471;-79
2023/12/05 05:50:26;;;;;;;20.27;18.23;;;;;;;;;;4939041;28;20234;-80
2023/12/05 05:52:52;;;;;;;20.67;18.67;;;;;;;;;;4970951;28;20226;-79
2023/12/05 05:55:18;;;;;;;22.90;18.57;;;;;;;;;;4943713;28;20222;-79
2023/12/05 05:57:44;;;;;;;20.37;18.47;;;;;;;;;;4968123;28;20223;-79
2023/12/05 06:00:11;;;;;;;20.70;18.60;;;;;;;;;;4943186;28;20226;-79
2023/12/05 06:02:37;;;;;;;20.40;18.30;;;;;;;;;;4967298;28;20226;-79
2023/12/05 06:05:03;;;;;;;19.83;17.93;;;;;;;;;;4965023;28;20221;-78
2023/12/05 06:07:29;;;;;;;21.63;18.73;;;;;;;;;;4969164;28;20269;-79
2023/12/05 06:09:55;;;;;;;20.90;18.73;;;;;;;;;;4968050;28;20744;-78
2023/12/05 06:12:21;;;;;;;20.03;18.03;;;;;;;;;;4940503;28;20227;-78
2023/12/05 06:14:46;;;;;;;20.53;18.53;;;;;;;;;;4947780;28;20277;-78
2023/12/05 06:17:14;;;;;;;20.10;18.20;;;;;;;;;;4963642;28;20226;-78
2023/12/05 06:19:45;;;;;;;20.57;18.43;;;;;;;;;;4984004;28;20249;-78
2023/12/05 06:22:11;;;;;;;19.97;18.03;;;;;;;;;;4963856;28;20222;-78
2023/12/05 06:24:36;;;;;;;21.13;19.03;;;;;;;;;;4955576;28;20308;-78
2023/12/05 06:27:04;;;;;;;19.50;17.60;;;;;;;;;;4966896;28;20221;-79
2023/12/05 06:29:30;;;;;;;20.90;18.83;;;;;;;;;;4967337;28;20223;-78
2023/12/05 06:31:55;;;;;;;21.07;18.80;;;;;;;;;;4982218;28;20237;-78
2023/12/05 06:34:22;;;;;;;20.33;18.33;;;;;;;;;;4948822;28;20586;-79
2023/12/05 06:36:47;;;;;;;20.97;18.87;;;;;;;;;;4965767;28;20228;-78
2023/12/05 06:39:13;;;;;;;21.23;19.03;;;;;;;;;;4968968;28;20209;-79
2023/12/05 06:41:43;;;;;;;21.20;19.13;;;;;;;;;;4957008;28;20585;-79
2023/12/05 06:44:08;;;;;;;22.27;19.97;;;;;;;;;;4966987;28;20227;-79
2023/12/05 06:46:34;;;;;;;20.73;18.63;;;;;;;;;;4983171;28;20233;-79
2023/12/05 06:49:00;;;;;;;20.57;18.50;;;;;;;;;;4964721;28;20229;-79
2023/12/05 06:51:25;;;;;;;20.70;18.73;;;;;;;;;;4967923;28;20237;-79
2023/12/05 06:53:51;;;;;;;20.90;18.87;;;;;;;;;;4950356;28;20222;-79
2023/12/05 06:56:18;;;;;;;21.07;18.97;;;;;;;;;;4963270;28;20605;-81
2023/12/05 06:58:46;;;;;;;20.90;18.80;;;;;;;;;;4951071;28;20733;-78
2023/12/05 07:01:11;;;;;;;20.20;18.23;;;;;;;;;;4988983;28;20301;-79
2023/12/05 07:03:37;;;;;;;21.20;19.03;;;;;;;;;;4963776;28;20219;-79
2023/12/05 07:06:04;;;;;;;22.13;20.03;;;;;;;;;;4985569;28;20222;-79
2023/12/05 07:08:30;;;;;;;22.23;20.10;;;;;;;;;;4970496;28;20229;-80
2023/12/05 07:10:59;;;;;;;22.23;19.93;;;;;;;;;;4956555;28;20226;-79
2023/12/05 07:13:25;;;;;;;22.43;20.13;;;;;;;;;;4969090;28;20241;-80
2023/12/05 07:15:53;;;;;;;21.77;19.60;;;;;;;;;;4962956;28;20700;-80
2023/12/05 07:18:18;;;;;;;22.30;20.13;;;;;;;;;;4981475;28;20213;-80
2023/12/05 07:20:48;;;;;;;23.27;20.43;;;;;;;;;;4964351;28;20704;-78
2023/12/05 07:23:17;;;;;;;22.90;20.33;;;;;;;;;;4950036;28;20234;-79
2023/12/05 07:25:42;;;;;;;21.37;19.20;;;;;;;;;;4948717;28;20230;-81
2023/12/05 07:28:11;;;;;;;21.20;19.20;;;;;;;;;;4946519;28;20246;-79
2023/12/05 07:30:36;;;;;;;23.87;21.37;;;;;;;;;;4956232;28;20214;-79
2023/12/05 07:33:02;;;;;;;25.00;21.70;;;;;;;;;;4949057;28;20751;-79
2023/12/05 07:35:27;;;;;;;22.80;20.50;;;;;;;;;;4937995;28;20218;-79
2023/12/05 07:37:53;;;;;;;22.57;20.37;;;;;;;;;;4946475;28;20211;-79
2023/12/05 07:40:18;;;;;;;23.40;21.10;;;;;;;;;;4978485;28;20210;-79
2023/12/05 07:42:46;;;;;;;23.97;21.50;;;;;;;;;;4966447;28;20233;-79
2023/12/05 07:45:12;;;;;;;21.63;19.63;;;;;;;;;;4969252;28;20746;-78
2023/12/05 07:47:37;;;;;;;24.30;21.90;;;;;;;;;;4967768;28;20234;-78
2023/12/05 07:50:03;;;;;;;23.23;20.93;;;;;;;;;;4932286;28;20224;-78
2023/12/05 07:52:29;;;;;;;22.67;19.57;;;;;;;;;;4943894;28;20222;-78
2023/12/05 07:54:56;;;;;;;22.70;20.30;;;;;;;;;;4980381;28;20677;-78
2023/12/05 07:57:22;;;;;;;21.93;19.87;;;;;;;;;;4960390;28;20282;-78
2023/12/05 07:59:48;;;;;;;22.90;20.63;;;;;;;;;;4973250;28;20223;-78
2023/12/05 08:02:20;;;;;;;23.27;20.90;;;;;;;;;;4947851;28;20290;-77
2023/12/05 08:04:46;;;;;;;23.53;21.13;;;;;;;;;;4977645;28;20225;-79
2023/12/05 08:07:12;;;;;;;22.10;20.00;;;;;;;;;;4989110;28;20292;-78
2023/12/05 08:09:41;;;;;;;20.73;18.67;;;;;;;;;;4962603;28;20228;-79
2023/12/05 08:12:06;;;;;;;23.83;21.17;;;;;;;;;;4976578;28;20222;-78
2023/12/05 08:14:32;;;;;;;23.23;20.93;;;;;;;;;;4982841;28;20237;-78
2023/12/05 08:16:58;;;;;;;22.47;20.23;;;;;;;;;;4958005;28;20230;-79
2023/12/05 08:19:26;;;;;;;21.80;19.57;;;;;;;;;;4962277;28;20233;-78
2023/12/05 08:21:52;;;;;;;23.23;20.83;;;;;;;;;;4965298;28;20635;-79
2023/12/05 08:24:17;;;;;;;21.83;19.73;;;;;;;;;;4972473;28;20211;-79
2023/12/05 08:26:47;;;;;;;21.80;19.60;;;;;;;;;;4965060;28;20246;-79
2023/12/05 08:29:15;;;;;;;21.20;19.10;;;;;;;;;;4967736;28;20297;-79
2023/12/05 08:31:41;;;;;;;21.73;19.60;;;;;;;;;;4971514;28;20225;-80
2023/12/05 08:34:06;;;;;;;21.53;19.30;;;;;;;;;;4956891;28;20261;-79
2023/12/05 08:36:37;;;;;;;21.00;18.93;;;;;;;;;;4952199;28;20903;-79
2023/12/05 08:39:03;;;;;;;21.23;19.20;;;;;;;;;;4952951;28;20223;-79
2023/12/05 08:41:29;;;;;;;20.97;19.03;;;;;;;;;;4959610;28;20210;-80
2023/12/05 08:43:54;;;;;;;21.13;19.03;;;;;;;;;;4966603;28;20215;-79
2023/12/05 08:46:22;;;;;;;22.57;20.33;;;;;;;;;;4980991;28;20218;-80
2023/12/05 08:48:48;;;;;;;22.80;20.47;;;;;;;;;;4950871;28;20221;-80
2023/12/05 08:51:13;;;;;;;21.60;19.43;;;;;;;;;;4972179;28;20275;-80
2023/12/05 08:53:38;;;;;;;20.53;18.67;;;;;;;;;;4963525;28;20231;-79
2023/12/05 08:56:07;;;;;;;21.37;19.27;;;;;;;;;;4949498;28;20229;-79
2023/12/05 08:58:33;;;;;;;20.80;18.80;;;;;;;;;;4950841;28;20303;-80
2023/12/05 09:00:59;;;;;;;21.67;19.20;;;;;;;;;;4965589;28;20227;-79
2023/12/05 09:03:24;;;;;;;22.00;19.70;;;;;;;;;;4984302;28;20218;-80
2023/12/05 09:05:50;;;;;;;21.17;19.07;;;;;;;;;;4953396;28;20237;-80
2023/12/05 09:08:16;;;;;;;20.93;18.90;;;;;;;;;;4966682;28;20229;-79
2023/12/05 09:10:41;;;;;;;20.43;18.43;;;;;;;;;;4971238;28;20695;-79
2023/12/05 09:13:09;;;;;;;21.17;19.03;;;;;;;;;;4984409;28;20687;-80
2023/12/05 09:15:37;;;;;;;20.53;18.67;;;;;;;;;;4970353;28;20237;-80
2023/12/05 09:18:05;;;;;;;21.43;19.30;;;;;;;;;;4978103;28;20249;-79
2023/12/05 09:20:30;;;;;;;23.30;20.00;;;;;;;;;;4975300;28;20667;-78
2023/12/05 09:22:58;;;;;;;20.63;18.63;;;;;;;;;;4943770;28;20214;-79
2023/12/05 09:25:27;;;;;;;21.23;19.03;;;;;;;;;;4955419;28;20222;-78
2023/12/05 09:27:52;;;;;;;22.90;19.80;;;;;;;;;;4965064;28;20232;-79
2023/12/05 09:30:18;;;;;;;20.60;18.60;;;;;;;;;;4963747;28;20221;-77
2023/12/05 09:32:43;;;;;;;22.13;20.00;;;;;;;;;;4964958;28;20238;-78
2023/12/05 09:35:11;;;;;;;29.03;26.10;;;;;;;;;;4936649;28;20494;-81
2023/12/05 09:37:37;;;;;;;24.30;21.93;;;;;;;;;;4985924;28;20246;-78
2023/12/05 09:40:03;;;;;;;22.67;20.27;;;;;;;;;;4968870;28;20253;-78
2023/12/05 09:42:28;;;;;;;20.40;18.30;;;;;;;;;;4966766;28;20225;-79
2023/12/05 09:44:54;;;;;;;21.40;19.27;;;;;;;;;;4966913;28;20231;-79
2023/12/05 09:47:20;;;;;;;20.20;18.27;;;;;;;;;;4920703;28;20231;-79
2023/12/05 09:49:46;;;;;;;24.57;21.93;;;;;;;;;;4947330;28;20265;-78
2023/12/05 09:52:14;;;;;;;21.73;19.73;;;;;;;;;;4965993;28;20234;-78
2023/12/05 09:54:43;;;;;;;22.30;20.20;;;;;;;;;;4968671;28;20722;-78
2023/12/05 09:57:11;;;;;;;24.33;22.03;;;;;;;;;;4939774;28;20226;-78
2023/12/05 09:59:36;;;;;;;20.50;18.30;;;;;;;;;;4929750;28;20258;-78
2023/12/05 10:02:02;;;;;;;21.37;19.20;;;;;;;;;;4948394;28;20214;-79
2023/12/05 10:04:28;;;;;;;20.10;18.10;;;;;;;;;;4948267;28;21013;-78
2023/12/05 10:06:56;;;;;;;19.47;17.50;;;;;;;;;;4934327;28;20234;-78
2023/12/05 10:09:23;;;;;;;24.27;21.00;;;;;;;;;;4962263;28;20222;-79
2023/12/05 10:11:53;;;;;;;21.27;19.03;;;;;;;;;;4945161;28;20221;-78
2023/12/05 10:14:19;;;;;;;19.30;17.47;;;;;;;;;;4960983;28;20230;-79
2023/12/05 10:16:44;;;;;;;20.27;18.10;;;;;;;;;;4948570;28;20231;-79
2023/12/05 10:19:10;;;;;;;20.33;18.43;;;;;;;;;;4959836;28;20217;-78
2023/12/05 10:21:35;;;;;;;20.03;18.07;;;;;;;;;;4962204;28;20241;-78
2023/12/05 10:24:04;;;;;;;20.43;18.03;;;;;;;;;;4948674;28;20594;-78
2023/12/05 10:26:30;;;;;;;18.67;16.97;;;;;;;;;;4943223;28;20801;-78
2023/12/05 10:28:56;;;;;;;18.73;16.83;;;;;;;;;;4960355;28;20226;-77
2023/12/05 10:31:21;;;;;;;21.17;18.87;;;;;;;;;;4960283;28;20217;-77
2023/12/05 10:33:49;;;;;;;20.17;18.13;;;;;;;;;;4964625;28;20584;-78
2023/12/05 10:36:18;;;;;;;18.90;16.60;;;;;;;;;;4975280;28;20218;-78
2023/12/05 10:38:47;;;;;;;20.43;17.60;;;;;;;;;;4962442;28;20314;-78
2023/12/05 10:41:20;;;;;;;18.90;17.07;;;;;;;;;;4974204;28;20211;-78
2023/12/05 10:43:49;;;;;;;17.67;15.97;;;;;;;;;;4946302;28;20222;-79
2023/12/05 10:46:16;;;;;;;19.03;17.33;;;;;;;;;;4962180;28;20229;-78
2023/12/05 10:48:46;;;;;;;18.67;16.97;;;;;;;;;;4964946;28;20245;-80
2023/12/05 10:51:14;;;;;;;19.20;17.30;;;;;;;;;;4962713;28;20219;-79
2023/12/05 10:53:42;;;;;;;18.87;17.07;;;;;;;;;;4937656;28;20254;-79
2023/12/05 10:56:17;;;;;;;18.67;16.23;;;;;;;;;;4962347;28;20569;-80
2023/12/05 10:58:42;;;;;;;18.17;16.37;;;;;;;;;;4942619;28;20654;-80
2023/12/05 11:01:11;;;;;;;19.00;17.10;;;;;;;;;;4976670;28;20575;-79
2023/12/05 11:03:38;;;;;;;18.67;16.87;;;;;;;;;;4943353;28;20650;-79
2023/12/05 11:06:07;;;;;;;19.57;17.53;;;;;;;;;;4962810;28;20222;-79
2023/12/05 11:08:37;;;;;;;19.50;17.43;;;;;;;;;;4970315;28;20226;-79
2023/12/05 11:11:04;;;;;;;17.00;15.30;;;;;;;;;;4947711;28;20301;-78
2023/12/05 11:13:34;;;;;;;18.83;17.03;;;;;;;;;;4967852;28;20762;-79
2023/12/05 11:16:08;;;;;;;19.37;16.87;;;;;;;;;;4957314;28;20265;-78
2023/12/05 11:18:40;;;;;;;18.13;16.43;;;;;;;;;;4965985;28;20687;-79
2023/12/05 11:22:01;;;;;;;19.20;17.37;;;;;;;;;;4917771;28;20221;-79
2023/12/05 11:24:48;;;;;;;19.40;17.53;;;;;;;;;;4904103;29;20286;-80
2023/12/05 11:27:29;;;;;;;19.37;17.33;;;;;;;;;;4904983;29;20402;-79
2023/12/05 11:30:03;;;;;;;19.03;17.23;;;;;;;;;;4924020;28;20314;-79
2023/12/05 11:33:07;;;;;;;19.83;17.93;;;;;;;;;;4987779;28;20300;-80
2023/12/05 11:36:03;;;;;;;19.20;17.50;;;;;;;;;;4928654;28;20234;-78
2023/12/05 11:38:29;;;;;;;19.30;17.30;;;;;;;;;;4971954;28;20301;-80
2023/12/05 11:41:24;;;;;;;19.63;17.73;;;;;;;;;;4948396;28;20223;-79
2023/12/05 11:44:16;;;;;;;20.13;18.00;;;;;;;;;;4954111;28;20228;-80
2023/12/05 11:46:47;;;;;;;20.57;18.67;;;;;;;;;;4964886;28;20230;-80
2023/12/05 11:49:26;;;;;;;20.40;18.47;;;;;;;;;;4954341;28;20289;-79
2023/12/05 11:51:54;;;;;;;20.40;18.40;;;;;;;;;;4968428;28;20226;-80
2023/12/05 11:54:23;;;;;;;20.80;18.77;;;;;;;;;;4978209;28;20227;-80
2023/12/05 11:56:51;;;;;;;20.93;18.80;;;;;;;;;;4947093;28;20230;-80
2023/12/05 11:59:16;;;;;;;20.30;18.27;;;;;;;;;;4951437;28;20222;-79
2023/12/05 12:01:42;;;;;;;21.20;19.20;;;;;;;;;;4968921;28;20252;-81
2023/12/05 12:04:21;;;;;;;20.13;18.10;;;;;;;;;;4936335;28;20223;-79
2023/12/05 12:06:46;;;;;;;20.07;18.20;;;;;;;;;;4936908;28;20226;-80
2023/12/05 12:09:15;;;;;;;20.13;18.17;;;;;;;;;;4936671;28;20222;-79
2023/12/05 12:11:44;;;;;;;19.33;17.33;;;;;;;;;;4970401;28;20670;-79
2023/12/05 12:14:19;;;;;;;19.73;17.90;;;;;;;;;;4952201;28;20556;-79
2023/12/05 12:16:53;;;;;;;20.10;18.23;;;;;;;;;;4959244;28;20226;-79
2023/12/05 12:19:22;;;;;;;20.60;18.70;;;;;;;;;;4965812;28;20210;-78
2023/12/05 12:21:47;;;;;;;19.90;18.03;;;;;;;;;;4967884;28;20214;-79
2023/12/05 12:24:19;;;;;;;19.40;17.50;;;;;;;;;;4985568;28;20224;-80
2023/12/05 12:26:57;;;;;;;20.10;18.07;;;;;;;;;;4957711;28;20274;-79
2023/12/05 12:29:23;;;;;;;19.40;17.40;;;;;;;;;;4946340;28;20230;-79
2023/12/05 12:31:50;;;;;;;20.30;18.30;;;;;;;;;;4991325;28;20229;-80
2023/12/05 12:34:24;;;;;;;19.90;17.83;;;;;;;;;;4957035;28;20230;-78
2023/12/05 12:36:49;;;;;;;19.53;17.47;;;;;;;;;;4973332;28;20256;-79
2023/12/05 12:39:16;;;;;;;21.00;18.03;;;;;;;;;;4983765;28;20695;-79
2023/12/05 12:41:44;;;;;;;19.93;17.93;;;;;;;;;;4964748;28;20278;-80
2023/12/05 12:44:09;;;;;;;19.73;17.83;;;;;;;;;;4942980;28;20202;-79
2023/12/05 12:46:35;;;;;;;24.17;18.13;;;;;;;;;;4970259;28;20337;-79
2023/12/05 12:49:02;;;;;;;19.27;17.37;;;;;;;;;;4972912;28;20224;-80
2023/12/05 12:51:32;;;;;;;18.47;16.77;;;;;;;;;;4957099;28;20968;-79
2023/12/05 12:54:01;;;;;;;18.53;16.73;;;;;;;;;;4953369;28;20294;-80
2023/12/05 12:56:32;;;;;;;17.33;15.73;;;;;;;;;;4981265;28;20245;-78
2023/12/05 12:59:01;;;;;;;17.47;15.93;;;;;;;;;;4986212;28;20245;-79
2023/12/05 13:01:28;;;;;;;17.60;15.97;;;;;;;;;;4970011;28;20229;-79
2023/12/05 13:03:54;;;;;;;17.17;15.63;;;;;;;;;;4943202;28;20229;-80
2023/12/05 13:06:20;;;;;;;17.93;16.33;;;;;;;;;;4958091;28;20223;-79
2023/12/05 13:08:48;;;;;;;17.37;15.57;;;;;;;;;;4969975;28;20227;-78
2023/12/05 13:11:17;;;;;;;17.10;15.57;;;;;;;;;;4982006;28;20230;-79
2023/12/05 13:13:45;;;;;;;17.50;15.70;;;;;;;;;;4935281;28;20289;-81
2023/12/05 13:16:11;;;;;;;15.87;14.33;;;;;;;;;;4964791;28;20244;-80
2023/12/05 13:18:45;;;;;;;15.33;13.90;;;;;;;;;;4953386;28;20281;-79
2023/12/05 13:21:15;;;;;;;16.37;14.87;;;;;;;;;;4956680;28;20222;-81
2023/12/05 13:23:44;;;;;;;17.50;15.60;;;;;;;;;;4970692;28;20225;-80
2023/12/05 13:26:09;;;;;;;15.90;14.43;;;;;;;;;;4962432;28;20634;-81
2023/12/05 13:28:37;;;;;;;17.87;14.73;;;;;;;;;;4968683;28;20230;-80
2023/12/05 13:31:03;;;;;;;16.77;15.03;;;;;;;;;;4939827;28;20230;-79
2023/12/05 13:33:29;;;;;;;17.27;15.33;;;;;;;;;;4978262;28;20233;-77
2023/12/05 13:35:54;;;;;;;17.60;15.50;;;;;;;;;;4975140;28;20234;-79
2023/12/05 13:38:20;;;;;;;17.50;15.87;;;;;;;;;;4921240;28;20299;-80
2023/12/05 13:40:45;;;;;;;16.80;15.10;;;;;;;;;;4942307;28;20227;-80
2023/12/05 13:43:13;;;;;;;15.67;14.30;;;;;;;;;;4964954;28;20590;-80
2023/12/05 13:45:42;;;;;;;16.47;14.97;;;;;;;;;;4954564;28;20249;-79
2023/12/05 13:48:10;;;;;;;15.17;13.87;;;;;;;;;;4968517;28;20272;-78
2023/12/05 13:50:35;;;;;;;18.57;16.77;;;;;;;;;;4957390;28;20683;-79
2023/12/05 13:53:01;;;;;;;17.30;15.50;;;;;;;;;;4937774;28;20211;-78
2023/12/05 13:55:29;;;;;;;16.97;15.43;;;;;;;;;;4977828;28;20241;-79
2023/12/05 13:57:55;;;;;;;16.77;14.93;;;;;;;;;;4953304;28;20226;-79
2023/12/05 14:00:23;;;;;;;18.40;15.97;;;;;;;;;;4964292;28;21611;-79
2023/12/05 14:02:49;;;;;;;15.53;13.93;;;;;;;;;;4984766;28;20253;-79
2023/12/05 14:05:14;;;;;;;15.03;13.70;;;;;;;;;;4967452;28;20257;-80
2023/12/05 14:07:44;;;;;;;15.70;14.20;;;;;;;;;;4967744;28;20294;-80
2023/12/05 14:10:12;;;;;;;15.40;13.93;;;;;;;;;;4964904;28;20709;-80
2023/12/05 14:12:40;;;;;;;14.77;13.27;;;;;;;;;;4965923;28;20229;-80
2023/12/05 14:15:14;;;;;;;16.20;14.70;;;;;;;;;;4950619;28;20230;-80
2023/12/05 14:17:39;;;;;;;14.90;13.63;;;;;;;;;;4967470;28;20261;-79
2023/12/05 14:20:06;;;;;;;15.73;14.23;;;;;;;;;;4962894;28;20230;-80
2023/12/05 14:22:35;;;;;;;16.30;14.77;;;;;;;;;;4966299;28;20785;-79